createdAt,value
2023-02-11T00:00:49.080Z,84.75
2023-02-11T00:01:49.328Z,84.37
2023-02-11T00:02:49.502Z,84.33
2023-02-11T00:03:52.056Z,84.43
2023-02-11T00:04:50.421Z,84.47
2023-02-11T00:06:00.880Z,84.34
2023-02-11T00:06:53.397Z,84.46
2023-02-11T00:07:53.844Z,84.48
2023-02-11T00:08:55.058Z,84.69
2023-02-11T00:09:57.328Z,84.9
2023-02-11T00:10:58.206Z,84.93
2023-02-11T00:11:56.105Z,84.97
2023-02-11T00:12:56.417Z,84.9
2023-02-11T00:14:00.137Z,84.93
2023-02-11T00:14:57.661Z,84.91
2023-02-11T00:15:58.208Z,84.93
2023-02-11T00:16:58.615Z,84.84
2023-02-11T00:17:58.810Z,84.63
2023-02-11T00:19:00.430Z,84.61
2023-02-11T00:19:59.615Z,84.67
2023-02-11T00:21:00.260Z,84.78
2023-02-11T00:22:00.580Z,84.7
2023-02-11T00:23:00.986Z,84.73
2023-02-11T00:24:01.308Z,84.56
2023-02-11T00:25:01.595Z,84.79
2023-02-11T00:26:02.372Z,84.83
2023-02-11T00:27:02.867Z,84.92
2023-02-11T00:28:03.222Z,84.68
2023-02-11T00:29:04.418Z,84.71
2023-02-11T00:30:04.714Z,84.82
2023-02-11T00:31:06.297Z,85.02
2023-02-11T00:32:05.932Z,85.13
2023-02-11T00:33:04.949Z,84.8
2023-02-11T00:34:05.364Z,84.5
2023-02-11T00:35:06.467Z,84.54
2023-02-11T00:36:13.675Z,84.72
2023-02-11T00:37:11.214Z,84.98
2023-02-11T00:38:11.496Z,85.02
2023-02-11T00:39:13.482Z,84.82
2023-02-11T00:40:12.763Z,84.68
2023-02-11T00:41:13.905Z,84.99
2023-02-11T00:42:15.344Z,85.29
2023-02-11T00:43:13.493Z,85.37
2023-02-11T00:44:14.022Z,85.23
2023-02-11T00:45:14.540Z,85.25
2023-02-11T00:46:15.077Z,85.23
2023-02-11T00:47:15.291Z,85.41
2023-02-11T00:48:15.656Z,85.41
2023-02-11T00:49:16.107Z,85.52
2023-02-11T00:50:16.519Z,85.65
2023-02-11T00:51:16.957Z,85.6
2023-02-11T00:52:20.130Z,85.6
2023-02-11T00:53:17.592Z,85.83
2023-02-11T00:54:17.990Z,85.63
2023-02-11T00:55:18.810Z,85.67
2023-02-11T00:56:19.103Z,85.47
2023-02-11T00:57:19.654Z,85.53
2023-02-11T00:58:19.754Z,85.5
2023-02-11T00:59:20.272Z,85.58
2023-02-11T01:00:20.488Z,85.44
2023-02-11T01:01:21.160Z,85.4
2023-02-11T01:02:21.337Z,85.46
2023-02-11T01:03:22.150Z,85.55
2023-02-11T01:04:27.692Z,85.56
2023-02-11T01:05:25.390Z,85.69
2023-02-11T01:06:25.547Z,85.76
2023-02-11T01:07:26.448Z,85.71
2023-02-11T01:08:27.720Z,85.8
2023-02-11T01:09:26.675Z,85.84
2023-02-11T01:10:27.311Z,85.82
2023-02-11T01:11:27.575Z,85.92
2023-02-11T01:12:28.047Z,85.83
2023-02-11T01:13:29.889Z,85.88
2023-02-11T01:14:28.776Z,85.89
2023-02-11T01:15:29.843Z,85.86
2023-02-11T01:16:29.615Z,85.84
2023-02-11T01:17:30.031Z,85.86
2023-02-11T01:18:30.445Z,85.95
2023-02-11T01:19:30.862Z,85.82
2023-02-11T01:20:31.277Z,85.99
2023-02-11T01:21:31.547Z,86.26
2023-02-11T01:22:32.279Z,86.4
2023-02-11T01:23:32.509Z,86.42
2023-02-11T01:24:33.336Z,86.43
2023-02-11T01:25:33.173Z,86.34
2023-02-11T01:26:33.776Z,86.19
2023-02-11T01:27:34.090Z,86.15
2023-02-11T01:28:34.724Z,86.19
2023-02-11T01:29:34.818Z,86.1
2023-02-11T01:30:35.236Z,86.01
2023-02-11T01:31:36.545Z,86.16
2023-02-11T01:32:36.469Z,86.38
2023-02-11T01:33:37.507Z,86.49
2023-02-11T01:34:36.916Z,86.37
2023-02-11T01:35:39.075Z,86.23
2023-02-11T01:36:37.737Z,86.18
2023-02-11T01:37:38.156Z,86.23
2023-02-11T01:38:38.661Z,86.37
2023-02-11T01:39:39.079Z,86.34
2023-02-11T01:40:39.397Z,86.31
2023-02-11T01:41:39.919Z,86.41
2023-02-11T01:42:40.428Z,86.35
2023-02-11T01:43:46.379Z,86.54
2023-02-11T01:44:44.032Z,86.73
2023-02-11T01:46:45.528Z,86.79
2023-02-11T01:47:45.909Z,86.61
2023-02-11T01:50:52.747Z,86.81
2023-02-11T01:52:50.953Z,86.88
2023-02-11T01:53:53.117Z,86.74
2023-02-11T01:54:54.661Z,86.87
2023-02-11T01:55:53.508Z,87.01
2023-02-11T01:56:55.160Z,87.02
2023-02-11T01:57:56.319Z,86.92
2023-02-11T01:59:00.480Z,86.8
2023-02-11T02:01:05.127Z,86.5
2023-02-11T02:02:08.514Z,86.46
2023-02-11T02:03:15.517Z,86.42
2023-02-11T02:04:10.373Z,86.47
2023-02-11T02:07:22.114Z,86.74
2023-02-11T02:10:27.106Z,87.16
2023-02-11T02:11:28.036Z,87.43
2023-02-11T02:12:25.386Z,87.65
2023-02-11T02:13:26.925Z,87.74
2023-02-11T02:14:26.117Z,87.86
2023-02-11T02:16:33.731Z,88.19
2023-02-11T02:39:39.381Z,92.75
2023-02-11T02:40:46.863Z,92.42
2023-02-11T02:41:40.066Z,92.49
2023-02-11T02:42:41.733Z,92.5
2023-02-11T02:44:40.231Z,92.87
2023-02-11T02:45:40.658Z,93.01
2023-02-11T02:46:40.999Z,93.19
2023-02-11T02:47:41.162Z,93.19
2023-02-11T02:48:41.797Z,93.37
2023-02-11T02:49:42.015Z,93.47
2023-02-11T02:50:42.274Z,93.76
2023-02-11T03:11:24.542Z,96.39
2023-02-11T03:12:24.756Z,96.57
2023-02-11T03:13:29.878Z,96.52
2023-02-11T03:14:29.898Z,96.61
2023-02-11T03:15:30.719Z,96.66
2023-02-11T03:16:29.058Z,96.77
2023-02-11T03:17:30.271Z,97.05
2023-02-11T03:18:31.352Z,97.11
2023-02-11T03:20:37.213Z,97.11
2023-02-11T03:21:38.544Z,96.99
2023-02-11T03:22:42.773Z,96.84
2023-02-11T03:23:44.401Z,96.94
2023-02-11T03:24:42.632Z,97.13
2023-02-11T03:25:48.503Z,97.26
2023-02-11T03:26:54.669Z,97.35
2023-02-11T03:27:52.994Z,97.75
2023-02-11T03:30:05.430Z,98.01
2023-02-11T03:38:20.002Z,98.43
2023-02-11T03:39:20.913Z,98.49
2023-02-11T03:41:21.678Z,98.58
2023-02-11T03:42:23.843Z,98.47
2023-02-11T03:43:26.710Z,98.58
2023-02-11T03:44:29.067Z,98.55
2023-02-11T03:45:28.575Z,98.5
2023-02-11T03:46:33.520Z,98.69
2023-02-11T03:47:35.446Z,99.03
2023-02-11T03:48:42.009Z,99.18
2023-02-11T03:49:38.416Z,99.23
2023-02-11T03:50:38.386Z,99.11
2023-02-11T03:51:37.502Z,99.02
2023-02-11T03:52:38.039Z,99.01
2023-02-11T03:53:39.058Z,99.02
2023-02-11T03:54:41.642Z,98.98
2023-02-11T03:55:40.711Z,99.01
2023-02-11T03:56:49.710Z,99.14
2023-02-11T03:57:42.168Z,99.21
2023-02-11T03:58:45.135Z,99.26
2023-02-11T04:00:46.321Z,99.48
2023-02-11T04:01:46.182Z,99.65
2023-02-11T04:02:46.790Z,99.72
2023-02-11T04:03:46.875Z,99.62
2023-02-11T04:04:47.856Z,99.65
2023-02-11T04:05:47.590Z,99.82
2023-02-11T04:06:47.858Z,99.86
2023-02-11T04:07:48.393Z,99.86
2023-02-11T04:08:48.796Z,99.88
2023-02-11T04:09:49.318Z,99.96
2023-02-11T04:10:49.210Z,99.97
2023-02-11T04:11:49.536Z,99.99
2023-02-11T04:12:49.939Z,99.93
2023-02-11T04:13:50.147Z,100
2023-02-11T04:14:50.483Z,100
2023-02-11T04:15:51.251Z,100
2023-02-11T04:16:51.205Z,100
2023-02-11T04:17:51.918Z,100
2023-02-11T04:18:51.734Z,99.96
2023-02-11T04:19:52.244Z,99.99
2023-02-11T04:20:52.569Z,100
2023-02-11T04:21:52.760Z,100
2023-02-11T04:22:53.153Z,100
2023-02-11T04:23:53.499Z,100
2023-02-11T04:24:53.713Z,100
2023-02-11T04:25:54.131Z,99.97
2023-02-11T04:26:54.339Z,99.95
2023-02-11T04:27:54.836Z,99.97
2023-02-11T04:28:55.275Z,100
2023-02-11T04:29:55.586Z,100
2023-02-11T04:30:56.233Z,100
2023-02-11T04:31:56.354Z,100
2023-02-11T04:32:58.552Z,100
2023-02-11T04:33:57.158Z,100
2023-02-11T04:34:56.949Z,100
2023-02-11T04:35:57.372Z,100
2023-02-11T04:36:57.680Z,100
2023-02-11T04:37:57.896Z,100
2023-02-11T04:38:58.418Z,100
2023-02-11T04:39:58.730Z,100
2023-02-11T04:40:59.044Z,100
2023-02-11T04:41:59.157Z,100
2023-02-11T04:42:59.576Z,100
2023-02-11T04:44:00.496Z,100
2023-02-11T04:45:00.320Z,100
2023-02-11T04:46:00.586Z,100
2023-02-11T04:47:01.139Z,100
2023-02-11T04:48:03.185Z,100
2023-02-11T04:49:01.557Z,100
2023-02-11T04:50:01.914Z,100
2023-02-11T04:51:02.591Z,100
2023-02-11T04:52:02.601Z,100
2023-02-11T04:53:02.823Z,100
2023-02-11T04:54:03.228Z,100
2023-02-11T04:55:04.936Z,100
2023-02-11T04:56:04.272Z,100
2023-02-11T04:57:04.393Z,100
2023-02-11T04:58:04.386Z,100
2023-02-11T04:59:06.330Z,100
2023-02-11T05:00:07.367Z,100
2023-02-11T05:01:10.510Z,100
2023-02-11T05:02:08.097Z,100
2023-02-11T05:03:08.394Z,100
2023-02-11T05:04:09.070Z,100
2023-02-11T05:05:08.938Z,100
2023-02-11T05:06:10.731Z,100
2023-02-11T05:07:09.763Z,100
2023-02-11T05:08:11.309Z,100
2023-02-11T05:09:12.558Z,100
2023-02-11T05:10:10.708Z,100
2023-02-11T05:11:21.871Z,100
2023-02-11T05:12:14.206Z,100
2023-02-11T05:13:14.525Z,100
2023-02-11T05:14:14.937Z,100
2023-02-11T05:15:15.627Z,100
2023-02-11T05:16:17.120Z,100
2023-02-11T05:17:15.876Z,100
2023-02-11T05:18:16.298Z,100
2023-02-11T05:19:16.572Z,100
2023-02-11T05:20:17.408Z,100
2023-02-11T05:21:19.195Z,100
2023-02-11T05:22:17.551Z,100
2023-02-11T05:23:18.062Z,100
2023-02-11T05:24:18.284Z,100
2023-02-11T05:25:18.594Z,100
2023-02-11T05:26:19.108Z,100
2023-02-11T05:27:19.086Z,100
2023-02-11T05:28:19.537Z,100
2023-02-11T05:29:19.958Z,100
2023-02-11T05:30:20.188Z,100
2023-02-11T05:31:20.469Z,100
2023-02-11T05:32:20.888Z,100
2023-02-11T05:33:21.496Z,100
2023-02-11T05:34:21.535Z,100
2023-02-11T05:35:21.838Z,100
2023-02-11T05:36:22.137Z,100
2023-02-11T05:37:22.670Z,100
2023-02-11T05:38:22.815Z,100
2023-02-11T05:39:23.151Z,100
2023-02-11T05:40:23.617Z,100
2023-02-11T05:41:23.806Z,100
2023-02-11T05:42:24.126Z,100
2023-02-11T05:43:24.467Z,100
2023-02-11T05:44:25.484Z,100
2023-02-11T05:45:25.165Z,100
2023-02-11T05:46:25.444Z,100
2023-02-11T05:47:25.812Z,100
2023-02-11T05:48:26.114Z,100
2023-02-11T05:49:26.447Z,100
2023-02-11T05:50:26.953Z,100
2023-02-11T05:51:27.080Z,100
2023-02-11T05:52:27.374Z,100
2023-02-11T05:53:27.681Z,100
2023-02-11T05:54:28.115Z,100
2023-02-11T05:55:28.531Z,100
2023-02-11T05:56:28.635Z,100
2023-02-11T05:57:29.066Z,100
2023-02-11T05:58:29.543Z,100
2023-02-11T05:59:29.880Z,100
2023-02-11T06:00:29.957Z,100
2023-02-11T06:01:30.434Z,100
2023-02-11T06:02:30.777Z,100
2023-02-11T06:03:31.082Z,100
2023-02-11T06:04:31.447Z,100
2023-02-11T06:05:32.080Z,100
2023-02-11T06:06:32.276Z,100
2023-02-11T06:07:32.491Z,100
2023-02-11T06:08:32.698Z,100
2023-02-11T06:09:33.354Z,100
2023-02-11T06:10:34.758Z,100
2023-02-11T06:11:33.739Z,100
2023-02-11T06:12:34.030Z,100
2023-02-11T06:13:34.987Z,100
2023-02-11T06:14:34.788Z,100
2023-02-11T06:15:35.008Z,100
2023-02-11T06:16:35.413Z,100
2023-02-11T06:17:36.083Z,100
2023-02-11T06:18:36.349Z,100
2023-02-11T06:19:36.667Z,100
2023-02-11T06:20:36.665Z,100
2023-02-11T06:21:43.743Z,100
2023-02-11T06:22:41.704Z,100
2023-02-11T06:23:42.054Z,100
2023-02-11T06:25:00.445Z,100
2023-02-11T06:25:43.362Z,100
2023-02-11T06:26:43.748Z,100
2023-02-11T06:27:44.089Z,100
2023-02-11T06:28:44.613Z,100
2023-02-11T06:29:45.438Z,100
2023-02-11T06:30:46.326Z,100
2023-02-11T06:31:45.551Z,100
2023-02-11T06:32:46.287Z,100
2023-02-11T06:33:46.473Z,100
2023-02-11T06:34:46.766Z,100
2023-02-11T06:35:46.780Z,100
2023-02-11T06:36:47.334Z,100
2023-02-11T06:37:47.645Z,100
2023-02-11T06:38:48.778Z,100
2023-02-11T06:39:48.299Z,100
2023-02-11T06:40:49.618Z,100
2023-02-11T06:41:48.801Z,100
2023-02-11T06:42:49.117Z,100
2023-02-11T06:43:50.658Z,100
2023-02-11T06:44:50.454Z,100
2023-02-11T06:46:53.219Z,100
2023-02-11T06:47:53.413Z,100
2023-02-11T06:48:53.655Z,100
2023-02-11T06:49:54.176Z,100
2023-02-11T06:50:54.494Z,100
2023-02-11T06:51:54.760Z,100
2023-02-11T06:52:55.093Z,100
2023-02-11T06:53:55.345Z,100
2023-02-11T06:54:55.759Z,100
2023-02-11T06:55:56.167Z,100
2023-02-11T06:56:56.474Z,100
2023-02-11T06:57:56.685Z,100
2023-02-11T06:58:57.511Z,100
2023-02-11T06:59:57.629Z,100
2023-02-11T07:00:57.946Z,100
2023-02-11T07:01:58.119Z,100
2023-02-11T07:02:58.393Z,100
2023-02-11T07:03:58.785Z,100
2023-02-11T07:04:59.203Z,100
2023-02-11T07:05:59.511Z,100
2023-02-11T07:06:59.767Z,100
2023-02-11T07:08:00.122Z,100
2023-02-11T07:09:00.658Z,100
2023-02-11T07:10:00.875Z,100
2023-02-11T07:11:01.071Z,100
2023-02-11T07:12:01.555Z,100
2023-02-11T07:13:01.697Z,100
2023-02-11T07:15:05.238Z,100
2023-02-11T07:17:07.263Z,100
2023-02-11T07:18:07.693Z,100
2023-02-11T07:19:07.885Z,100
2023-02-11T07:20:08.928Z,100
2023-02-11T07:21:10.233Z,100
2023-02-11T07:22:09.048Z,100
2023-02-11T07:23:09.356Z,100
2023-02-11T07:24:11.280Z,100
2023-02-11T07:25:10.278Z,100
2023-02-11T07:26:13.033Z,100
2023-02-11T07:27:10.681Z,100
2023-02-11T07:28:11.892Z,100
2023-02-11T07:29:11.433Z,100
2023-02-11T07:30:13.104Z,100
2023-02-11T07:32:13.183Z,100
2023-02-11T07:33:12.798Z,100
2023-02-11T07:34:13.727Z,100
2023-02-11T07:35:13.529Z,100
2023-02-11T07:36:15.576Z,100
2023-02-11T07:37:14.267Z,100
2023-02-11T07:38:14.675Z,100
2023-02-11T07:39:15.203Z,100
2023-02-11T07:40:15.166Z,100
2023-02-11T07:41:17.964Z,100
2023-02-11T07:42:15.959Z,100
2023-02-11T07:43:16.112Z,100
2023-02-11T07:44:16.555Z,100
2023-02-11T07:45:17.184Z,100
2023-02-11T07:46:23.164Z,100
2023-02-11T07:47:20.574Z,100
2023-02-11T07:48:20.880Z,100
2023-02-11T07:49:21.201Z,100
2023-02-11T07:50:21.616Z,100
2023-02-11T07:51:27.877Z,100
2023-02-11T07:52:25.319Z,100
2023-02-11T07:53:25.840Z,100
2023-02-11T07:54:26.043Z,100
2023-02-11T07:55:26.469Z,100
2023-02-11T07:56:27.588Z,100
2023-02-11T07:57:27.512Z,100
2023-02-11T07:58:27.805Z,100
2023-02-11T07:59:27.835Z,100
2023-02-11T08:00:28.341Z,100
2023-02-11T08:01:28.955Z,100
2023-02-11T08:02:28.769Z,100
2023-02-11T08:03:29.178Z,100
2023-02-11T08:04:29.384Z,100
2023-02-11T08:05:30.209Z,100
2023-02-11T08:06:32.680Z,100
2023-02-11T08:07:30.432Z,100
2023-02-11T08:08:30.742Z,100
2023-02-11T08:09:34.179Z,100
2023-02-11T08:10:32.108Z,100
2023-02-11T08:11:32.728Z,100
2023-02-11T08:12:32.718Z,100
2023-02-11T08:13:33.033Z,100
2023-02-11T08:14:33.425Z,100
2023-02-11T08:15:33.865Z,100
2023-02-11T08:16:35.882Z,100
2023-02-11T08:17:36.258Z,100
2023-02-11T08:18:35.425Z,100
2023-02-11T08:19:35.427Z,100
2023-02-11T08:20:35.529Z,100
2023-02-11T08:21:35.647Z,100
2023-02-11T08:22:36.263Z,100
2023-02-11T08:23:38.237Z,100
2023-02-11T08:24:36.800Z,100
2023-02-11T08:25:37.116Z,100
2023-02-11T08:26:40.486Z,100
2023-02-11T08:27:37.831Z,100
2023-02-11T08:28:40.500Z,100
2023-02-11T08:29:38.580Z,100
2023-02-11T08:30:38.933Z,100
2023-02-11T08:31:42.430Z,100
2023-02-11T08:32:40.116Z,100
2023-02-11T08:33:40.389Z,100
2023-02-11T08:34:41.164Z,100
2023-02-11T08:35:41.041Z,100
2023-02-11T08:36:42.809Z,100
2023-02-11T08:37:41.694Z,100
2023-02-11T08:38:42.944Z,100
2023-02-11T08:39:42.322Z,100
2023-02-11T08:40:42.841Z,100
2023-02-11T08:41:43.349Z,100
2023-02-11T08:42:43.447Z,100
2023-02-11T08:43:44.702Z,100
2023-02-11T08:44:43.872Z,100
2023-02-11T08:45:45.851Z,100
2023-02-11T08:46:44.889Z,100
2023-02-11T08:47:44.999Z,100
2023-02-11T08:48:46.242Z,100
2023-02-11T08:49:45.868Z,100
2023-02-11T08:50:46.424Z,100
2023-02-11T08:51:47.112Z,100
2023-02-11T08:52:46.809Z,100
2023-02-11T08:53:47.430Z,100
2023-02-11T08:54:47.960Z,100
2023-02-11T08:55:55.520Z,100
2023-02-11T08:56:52.859Z,100
2023-02-11T08:57:53.191Z,100
2023-02-11T08:58:55.496Z,100
2023-02-11T08:59:54.021Z,100
2023-02-11T09:00:54.825Z,100
2023-02-11T09:01:57.547Z,100
2023-02-11T09:02:57.420Z,100
2023-02-11T09:03:56.589Z,100
2023-02-11T09:04:55.670Z,100
2023-02-11T09:05:55.996Z,100
2023-02-11T09:06:56.844Z,100
2023-02-11T09:07:56.747Z,100
2023-02-11T09:08:57.881Z,100
2023-02-11T09:09:57.320Z,100
2023-02-11T09:10:57.995Z,100
2023-02-11T09:11:58.400Z,100
2023-02-11T09:12:58.517Z,100
2023-02-11T09:13:59.104Z,100
2023-02-11T09:14:59.542Z,100
2023-02-11T09:16:01.321Z,100
2023-02-11T09:16:59.936Z,100
2023-02-11T09:18:00.180Z,100
2023-02-11T09:19:02.237Z,100
2023-02-11T09:20:01.221Z,100
2023-02-11T09:21:10.154Z,100
2023-02-11T09:22:02.592Z,100
2023-02-11T09:23:02.986Z,100
2023-02-11T09:24:03.608Z,100
2023-02-11T09:25:03.451Z,100
2023-02-11T09:26:09.437Z,100
2023-02-11T09:27:07.103Z,100
2023-02-11T09:28:08.922Z,100
2023-02-11T09:29:07.941Z,100
2023-02-11T09:30:09.137Z,100
2023-02-11T09:31:10.960Z,100
2023-02-11T09:32:10.120Z,100
2023-02-11T09:33:10.013Z,100
2023-02-11T09:34:12.010Z,100
2023-02-11T09:35:10.863Z,100
2023-02-11T09:36:11.570Z,100
2023-02-11T09:37:10.462Z,100
2023-02-11T09:38:10.988Z,100
2023-02-11T09:39:17.437Z,100
2023-02-11T09:40:16.316Z,100
2023-02-11T09:43:22.889Z,100
2023-02-11T09:45:28.224Z,100
2023-02-11T09:46:27.611Z,100
2023-02-11T09:48:32.294Z,100
2023-02-11T09:50:40.052Z,99.54
2023-02-11T09:52:45.466Z,99.73
2023-02-11T09:53:42.516Z,100
2023-02-11T09:55:45.296Z,100
2023-02-11T09:56:42.852Z,100
2023-02-11T09:57:42.815Z,100
2023-02-11T09:58:44.901Z,100
2023-02-11T09:59:43.710Z,100
2023-02-11T10:01:53.703Z,100
2023-02-11T10:22:48.546Z,100
2023-02-11T10:23:52.142Z,100
2023-02-11T10:24:55.534Z,100
2023-02-11T10:25:54.824Z,100
2023-02-11T10:26:53.085Z,100
2023-02-11T10:27:56.986Z,100
2023-02-11T10:28:56.105Z,100
2023-02-11T10:34:07.267Z,100
2023-02-11T10:36:05.543Z,100
2023-02-11T10:37:05.235Z,100
2023-02-11T10:38:05.540Z,100
2023-02-11T10:42:14.689Z,100
2023-02-11T10:43:16.849Z,100
2023-02-11T10:46:19.797Z,100
2023-02-11T10:47:24.136Z,100
2023-02-11T10:52:29.081Z,100
2023-02-11T10:53:28.589Z,100
2023-02-11T10:54:28.796Z,100
2023-02-11T10:55:29.319Z,100
2023-02-11T10:56:32.926Z,100
2023-02-11T10:59:38.987Z,99.99
2023-02-11T11:00:41.127Z,99.67
2023-02-11T11:02:41.140Z,99.49
2023-02-11T11:04:47.621Z,99.8
2023-02-11T11:06:46.360Z,100
2023-02-11T11:08:51.859Z,100
2023-02-11T11:12:00.058Z,100
2023-02-11T11:12:57.597Z,100
2023-02-11T11:14:00.379Z,100
2023-02-11T11:17:18.817Z,100
2023-02-11T11:18:23.479Z,100
2023-02-11T11:23:21.522Z,100
2023-02-11T11:26:24.309Z,100
2023-02-11T11:27:26.150Z,100
2023-02-11T11:28:26.675Z,100
2023-02-11T11:30:34.299Z,100
2023-02-11T11:31:37.763Z,100
2023-02-11T11:32:35.413Z,100
2023-02-11T11:33:36.739Z,100
2023-02-11T11:34:40.042Z,100
2023-02-11T11:35:38.293Z,100
2023-02-11T11:36:39.748Z,100
2023-02-11T11:37:39.257Z,100
2023-02-11T11:38:49.288Z,100
2023-02-11T11:39:42.323Z,100
2023-02-11T11:40:42.014Z,100
2023-02-11T11:41:53.884Z,100
2023-02-11T11:42:46.786Z,100
2023-02-11T11:46:00.208Z,100
2023-02-11T11:54:06.782Z,100
2023-02-11T11:59:16.620Z,100
2023-02-11T12:43:38.654Z,99.11
2023-02-11T12:55:02.575Z,95.91
2023-02-11T12:58:01.669Z,95.13
2023-02-11T12:59:02.048Z,95.66
2023-02-11T13:01:09.528Z,95.74
2023-02-11T13:08:32.457Z,97.11
2023-02-11T13:09:39.126Z,97.28
2023-02-11T13:10:38.113Z,97.68
2023-02-11T13:11:40.579Z,97.86
2023-02-11T13:12:38.345Z,98.14
2023-02-11T13:14:41.210Z,98.96
2023-02-11T13:15:40.199Z,99.25
2023-02-11T13:16:48.107Z,99.26
2023-02-11T13:30:26.035Z,96.66
2023-02-11T13:31:14.802Z,96.03
2023-02-11T13:32:14.856Z,93.07
2023-02-11T13:38:31.329Z,90.24
2023-02-11T13:39:31.518Z,88.86
2023-02-11T13:40:38.232Z,88.78
2023-02-11T13:41:34.154Z,89.12
2023-02-11T13:42:34.124Z,89
2023-02-11T13:43:36.490Z,89.64
2023-02-11T13:44:34.752Z,90.14
2023-02-11T13:47:39.684Z,91.7
2023-02-11T13:48:47.894Z,92.13
2023-02-11T13:49:49.115Z,92.83
2023-02-11T13:50:48.634Z,92.81
2023-02-11T13:51:46.383Z,93.46
2023-02-11T13:52:46.423Z,94.48
2023-02-11T13:53:58.772Z,95.04
2023-02-11T13:54:52.827Z,95.86
2023-02-11T14:01:05.313Z,88.28
2023-02-11T14:06:29.263Z,84.62
2023-02-11T14:07:33.744Z,83.77
2023-02-11T14:08:31.217Z,83.36
2023-02-11T14:09:37.887Z,82.28
2023-02-11T14:12:40.561Z,80.76
2023-02-11T14:15:49.392Z,80.47
2023-02-11T14:17:51.456Z,80.14
2023-02-11T14:19:52.694Z,80.76
2023-02-11T14:22:06.769Z,81.5
2023-02-11T14:22:59.903Z,81.32
2023-02-11T14:27:15.799Z,81.45
2023-02-11T14:31:29.557Z,80.24
2023-02-11T14:41:43.028Z,80.59
2023-02-11T14:42:40.576Z,79.57
2023-02-11T14:43:45.904Z,80.11
2023-02-11T14:44:43.445Z,79.82
2023-02-11T14:45:48.508Z,78.79
2023-02-11T14:46:48.803Z,78.75
2023-02-11T14:48:50.719Z,78.71
2023-02-11T14:49:49.954Z,78.75
2023-02-11T14:51:49.246Z,79.47
2023-02-11T14:52:50.050Z,79.83
2023-02-11T14:53:52.436Z,79.68
2023-02-11T14:54:52.348Z,79.93
2023-02-11T14:55:52.745Z,79.85
2023-02-11T14:59:00.751Z,80.16
2023-02-11T15:00:04.792Z,79.97
2023-02-11T15:01:05.597Z,80.65
2023-02-11T15:02:03.522Z,81.38
2023-02-11T15:03:03.856Z,81.08
2023-02-11T15:04:06.533Z,81.26
2023-02-11T15:06:19.345Z,80.27
2023-02-11T15:07:14.010Z,80.81
2023-02-11T15:08:16.140Z,79.71
2023-02-11T15:11:25.206Z,81
2023-02-11T15:12:26.126Z,81.2
2023-02-11T15:13:26.436Z,81.98
2023-02-11T15:15:27.359Z,80.65
2023-02-11T15:16:27.993Z,80.76
2023-02-11T15:17:29.528Z,81.17
2023-02-11T15:19:34.795Z,80.13
2023-02-11T15:20:33.968Z,79.71
2023-02-11T15:21:35.906Z,78.87
2023-02-11T15:22:35.101Z,79.42
2023-02-11T15:23:33.993Z,78.57
2023-02-11T15:24:35.511Z,78.84
2023-02-11T15:25:34.490Z,78.69
2023-02-11T15:26:35.128Z,78.19
2023-02-11T15:28:35.645Z,77.89
2023-02-11T15:29:46.319Z,78.95
2023-02-11T15:30:38.945Z,77.58
2023-02-11T15:31:39.186Z,77.29
2023-02-11T15:32:44.564Z,77.73
2023-02-11T15:33:42.227Z,76.61
2023-02-11T15:34:43.986Z,75.3
2023-02-11T15:35:42.767Z,76.17
2023-02-11T15:36:43.602Z,75.62
2023-02-11T15:37:44.219Z,75.86
2023-02-11T15:38:43.931Z,75.77
2023-02-11T15:39:44.148Z,75.62
2023-02-11T15:41:47.938Z,76.21
2023-02-11T15:43:00.230Z,77.08
2023-02-11T15:43:52.518Z,77.22
2023-02-11T15:46:56.774Z,77.65
2023-02-11T15:49:00.266Z,78.55
2023-02-11T15:49:59.968Z,78.76
2023-02-11T15:51:03.768Z,79
2023-02-11T15:52:02.956Z,78.99
2023-02-11T15:55:15.581Z,79.25
2023-02-11T15:57:10.976Z,80.36
2023-02-11T15:58:12.412Z,80.72
2023-02-11T16:00:19.096Z,80.7
2023-02-11T16:01:17.258Z,81.21
2023-02-11T16:03:26.260Z,81.54
2023-02-11T16:04:30.123Z,81.69
2023-02-11T16:05:38.830Z,81.47
2023-02-11T16:06:42.669Z,81.21
2023-02-11T16:07:44.318Z,81.09
2023-02-11T16:08:36.842Z,80.13
2023-02-11T16:09:37.115Z,79.76
2023-02-11T16:10:37.496Z,80.15
2023-02-11T16:12:40.768Z,80.16
2023-02-11T16:13:47.248Z,79.84
2023-02-11T16:14:47.750Z,79.86
2023-02-11T16:15:50.309Z,79.62
2023-02-11T16:16:51.436Z,79.02
2023-02-11T16:17:49.289Z,79.22
2023-02-11T16:19:04.629Z,79.23
2023-02-11T16:19:53.989Z,79.19
2023-02-11T16:20:54.004Z,79.37
2023-02-11T16:21:56.492Z,79.03
2023-02-11T16:22:54.756Z,78.88
2023-02-11T16:23:57.527Z,79.13
2023-02-11T16:25:04.875Z,78.64
2023-02-11T16:28:06.421Z,79.87
2023-02-11T16:31:11.337Z,80.42
2023-02-11T16:32:22.857Z,80.66
2023-02-11T16:33:15.614Z,80.93
2023-02-11T16:34:18.704Z,81.04
2023-02-11T16:35:16.170Z,81.08
2023-02-11T16:36:16.875Z,80.7
2023-02-11T16:37:18.096Z,80.67
2023-02-11T16:38:18.396Z,80.8
2023-02-11T16:39:20.677Z,80.7
2023-02-11T16:40:18.832Z,80.73
2023-02-11T16:41:18.939Z,81.15
2023-02-11T16:42:19.252Z,81.04
2023-02-11T16:43:20.602Z,80.93
2023-02-11T16:44:22.852Z,80.94
2023-02-11T16:45:20.407Z,81.1
2023-02-11T16:46:21.363Z,81.05
2023-02-11T16:47:26.971Z,81.55
2023-02-11T16:48:25.662Z,81.69
2023-02-11T16:49:31.287Z,81.76
2023-02-11T16:50:29.040Z,81.72
2023-02-11T16:51:29.256Z,81.44
2023-02-11T16:52:29.764Z,81.23
2023-02-11T16:53:29.885Z,81.15
2023-02-11T16:54:30.711Z,81.41
2023-02-11T16:55:32.628Z,81.59
2023-02-11T16:56:31.326Z,81.79
2023-02-11T16:57:31.747Z,81.94
2023-02-11T16:58:32.040Z,82.04
2023-02-11T16:59:32.383Z,82.16
2023-02-11T17:00:32.877Z,82.13
2023-02-11T17:01:33.681Z,82.08
2023-02-11T17:02:37.234Z,82.16
2023-02-11T17:03:38.217Z,82.13
2023-02-11T17:04:35.847Z,82.23
2023-02-11T17:05:53.179Z,82.41
2023-02-11T17:06:37.251Z,82.47
2023-02-11T17:07:37.672Z,82.55
2023-02-11T17:08:38.072Z,82.89
2023-02-11T17:09:38.752Z,82.87
2023-02-11T17:10:38.893Z,82.86
2023-02-11T17:11:39.321Z,82.99
2023-02-11T17:12:39.742Z,83.13
2023-02-11T17:13:40.048Z,83.09
2023-02-11T17:14:40.456Z,83.1
2023-02-11T17:15:40.975Z,83.12
2023-02-11T17:16:42.083Z,83.32
2023-02-11T17:17:41.706Z,83.31
2023-02-11T17:18:42.019Z,83.42
2023-02-11T17:19:42.466Z,83.39
2023-02-11T17:20:42.978Z,83.46
2023-02-11T17:21:47.145Z,83.34
2023-02-11T17:22:44.616Z,83.42
2023-02-11T17:23:44.908Z,83.67
2023-02-11T17:24:45.355Z,83.72
2023-02-11T17:25:45.662Z,83.72
2023-02-11T17:26:46.898Z,83.63
2023-02-11T17:27:46.597Z,83.69
2023-02-11T17:28:46.907Z,84.06
2023-02-11T17:29:47.322Z,84.26
2023-02-11T17:30:47.787Z,84.52
2023-02-11T17:31:49.136Z,84.56
2023-02-11T17:32:49.083Z,84.35
2023-02-11T17:33:48.983Z,84.47
2023-02-11T17:34:49.384Z,84.39
2023-02-11T17:35:50.280Z,84.22
2023-02-11T17:36:51.571Z,84.47
2023-02-11T17:37:51.345Z,84.77
2023-02-11T17:38:50.976Z,84.83
2023-02-11T17:39:51.489Z,84.69
2023-02-11T17:41:56.330Z,84.74
2023-02-11T17:42:56.648Z,84.88
2023-02-11T17:44:01.041Z,84.94
2023-02-11T17:44:58.462Z,84.73
2023-02-11T17:45:59.221Z,84.61
2023-02-11T17:46:59.417Z,84.5
2023-02-11T17:47:59.528Z,84.51
2023-02-11T17:49:00.047Z,84.52
2023-02-11T17:50:00.674Z,84.57
2023-02-11T17:51:00.856Z,84.49
2023-02-11T17:52:01.297Z,84.33
2023-02-11T17:53:01.810Z,84.3
2023-02-11T17:54:05.817Z,84.27
2023-02-11T17:55:03.256Z,84.37
2023-02-11T17:56:04.191Z,84.51
2023-02-11T17:57:04.333Z,84.65
2023-02-11T17:58:04.616Z,84.7
2023-02-11T17:59:07.120Z,84.79
2023-02-11T18:00:09.047Z,84.35
2023-02-11T18:01:06.527Z,84.34
2023-02-11T18:02:07.511Z,84.12
2023-02-11T18:03:07.199Z,83.81
2023-02-11T18:04:10.617Z,83.82
2023-02-11T18:05:08.751Z,83.83
2023-02-11T18:06:08.762Z,83.7
2023-02-11T18:07:08.991Z,83.72
2023-02-11T18:08:09.173Z,83.79
2023-02-11T18:09:10.317Z,83.75
2023-02-11T18:10:10.735Z,83.47
2023-02-11T18:11:11.677Z,83.52
2023-02-11T18:12:11.150Z,83.72
2023-02-11T18:13:11.368Z,83.87